DRI Storm Peak Lab. Weather observations

Data are for 5 minute period ending at time listed.
 Day   Time    Ave.   Ave.  Ave.  Vector  Max.   Total    Baro.    Solar      Aerosol      Ave.  Ultrafine   Snow  
  of    of     Air    Rel.  Wind   Wind   Wind  Precip.   Pres.  Radiation   Aerosol      Ozone   Aerosol    Depth 
Year   Day     Temp.  Hum.  Speed  Dir.   Gust                               Ave.   Max.            Ave.           
2014   (MST)    F      %     mph   deg.    mph    in.      mb.     w/m2         #/cm3      ppbv    #/cm3      in.  
-------------------------------------------------------------------------------------------------------------------
 203    0:45   59.7    28    9.9   186    13.2   999.00    701.0      0.0    -1415       0   999.0        0     0.0
 203    0:50   59.8    28    9.8   188    12.8   999.00    701.0      0.0    -1415       0   999.0        0     0.0
 203    0:55   59.6    29    8.2   186    10.2   999.00    701.0      0.0    -1415       0   999.0        0     0.0
 203    1:00   59.4    30    9.0   185    10.4   999.00    701.0      0.0    -1415       0   999.0        0     0.0
 203    1:05   59.4    30    9.7   178    10.9   999.00    701.0      0.0    -1415       0   999.0        0     0.0
 203    1:10   59.3    30    9.2   163    11.3   999.00    701.0      0.0    -1415       0   999.0        0     0.0
 203    1:15   59.3    30    9.2   159    11.3   999.00    701.0      0.0    -1415       0   999.0        0     0.0
 203    1:20   59.3    30    9.4   152    10.9   999.00    700.0      0.0    -1415       0   999.0        0     0.0
 203    1:25   59.2    30    9.4   157    11.7   999.00    700.0      0.0    -1415       0   999.0        0     0.0
 203    1:30   59.2    29   10.0   162    13.0   999.00    700.0      0.0    -1415       0   999.0        0     0.0
 203    1:35   59.1    29    9.2   163    11.5   999.00    700.0      0.0    -1415       0   999.0        0     0.0
 203    1:40   58.9    29   11.0   164    13.0   999.00    700.0      0.0    -1415       0   999.0        0     0.0
 203    1:45   59.0    29    9.4   164    11.8   999.00    700.0      0.0    -1415       0   999.0        0     0.0
 203    1:50   58.9    29   10.0   158    12.2   999.00    700.0      0.0    -1415       0   999.0        0     0.0
 203    1:55   59.0    29   10.1   168    13.9   999.00    700.0      0.0    -1415       0   999.0        0     0.0
 203    2:00   58.7    29    9.6   158    11.8   999.00    700.0      0.0    -1415       0   999.0        0     0.0
 203    2:05   58.7    29    9.5   157    12.6   999.00    700.0      0.0    -1416       0   999.0        0     0.0
 203    2:10   58.7    29   10.0   163    12.2   999.00    700.0      0.0    -1416       0   999.0        0     0.0
 203    2:15   58.6    29    9.1   166    10.9   999.00    700.0      0.0    -1416       0   999.0        0     0.0
 203    2:20   58.5    29    6.4   187    10.0   999.00    701.0      0.0    -1416       0   999.0        0     0.0
 203    2:25   57.9    31    4.6   203     6.5   999.00    701.0      0.0    -1416       0   999.0        0     0.0
 203    2:30   58.2    30    5.0   203     6.5   999.00    701.0      0.0    -1416       0   999.0        0     0.0
 203    2:35   58.3    30    5.8   204     9.2   999.00    701.0      0.0    -1416       0   999.0        0     0.0
 203    2:40   58.4    30    7.2   202    11.1   999.00    701.0      0.0    -1417       0   999.0        0     0.0
 203    2:45   58.2    29    7.6   211    11.3   999.00    701.0      0.0    -1417       0   999.0        0     0.0
 203    2:50   58.2    26    8.7   226    13.0   999.00    701.0      0.0    -1417       0   999.0        0     0.0
 203    2:55   58.2    26   10.8   226    16.5   999.00    701.0      0.0    -1417       0   999.0        0     0.0
 203    3:00   58.3    26    7.0   225    10.2   999.00    701.0      0.0    -1417       0   999.0        0     0.0
 203    3:05   58.2    27    6.1   222    10.9   999.00    701.0      0.0    -1418       0   999.0        0     0.0
 203    3:10   58.3    26    9.7   225    14.3   999.00    701.0      0.0    -1418       0   999.0        0     0.0
 203    3:15   57.8    28    6.8   219    13.0   999.00    701.0      0.0    -1419       0   999.0        0     0.0
 203    3:20   57.3    30    7.2   203    10.2   999.00    701.0      0.0    -1418       0   999.0        0     0.0
 203    3:25   57.4    28    8.9   211    13.0   999.00    701.0      0.0    -1419       0   999.0        0     0.0
 203    3:30   57.1    28    7.8   211    10.9   999.00    701.0      0.0    -1419       0   999.0        0     0.0
 203    3:35   57.6    26    8.2   218    12.2   999.00    701.0      0.0    -1420       0   999.0        0     0.0
 203    3:40   57.1    28    5.7   218     9.2   999.00    701.0      0.0    -1420       0   999.0        0     0.0
 203    3:45   57.1    29    6.4   218     9.1   999.00    701.0      0.0    -1420       0   999.0        0     0.0
 203    3:50   57.0    29    6.9   218     9.4   999.00    701.0      0.0    -1420       0   999.0        0     0.0
 203    3:55   56.8    29    7.0   220     8.9   999.00    701.0      0.0    -1421       0   999.0        0     0.0
 203    4:00   56.6    29    8.0   220    10.0   999.00    701.0      0.0    -1421       0   999.0        0     0.0
 203    4:05   56.7    28    7.9   222     9.2   999.00    701.0      0.0    -1421       0   999.0        0     0.0
 203    4:10   56.6    27    9.4   223    11.7   999.00    701.0      0.0    -1421       0   999.0        0     0.0
 203    4:15   57.0    26    8.8   223    11.7   999.00    701.0      0.0    -1421       0   999.0        0     0.0
 203    4:20   56.8    26   10.3   224    14.3   999.00    701.0      0.0    -1421       0   999.0        0     0.0
 203    4:25   56.6    26    9.4   223    13.9   999.00    701.0      0.0    -1421       0   999.0        0     0.0
 203    4:30   56.6    26    7.6   223    12.4   999.00    701.0      0.0    -1421       0   999.0        0     0.0
 203    4:35   56.7    26    6.9   220    10.6   999.00    701.0      0.0    -1421       0   999.0        0     0.0
 203    4:40   56.8    26    5.8   216     8.5   999.00    701.0      0.0    -1422       0   999.0        0     0.0
 203    4:45   56.7    25    8.8   217    12.2   999.00    701.0      0.0    -1422       0   999.0        0     0.0
 203    4:50   56.9    25    7.8   216    11.7   999.00    701.0      0.0    -1422       0   999.0        0     0.0
 203    4:55   57.0    24    6.8   214    10.6   999.00    701.0      0.0    -1422       0   999.0        0     0.0
 203    5:00   57.0    24    7.6   213    11.1   999.00    701.0      0.0    -1422       0   999.0        0     0.0
 203    5:05   56.9    24    7.2   214    12.2   999.00    701.0      0.0    -1422       0   999.0        0     0.0
 203    5:10   56.9    24    7.4   211    13.5   999.00    701.0      0.0    -1422       0   999.0        0     0.0
 203    5:15   56.8    24    5.9   211    10.2   999.00    701.0      0.0    -1422       0   999.0        0     0.0
 203    5:20   56.9    24    6.6   205    10.6   999.00    701.0      0.0    -1423       0   999.0        0     0.0
 203    5:25   56.9    24    5.9   204     7.9   999.00    701.0      0.0    -1423       0   999.0        0     0.0
 203    5:30   56.9    24    5.8   204     8.1   999.00    701.0      0.0    -1423       0   999.0        0     0.0
 203    5:35   56.9    24    9.5   200    12.4   999.00    702.0      0.0    -1423       0   999.0        0     0.0
 203    5:40   56.8    24    8.6   200    12.4   999.00    702.0      0.0    -1423       0   999.0        0     0.0
 203    5:45   56.7    25    8.8   195    11.8   999.00    702.0      0.0    -1423       0   999.0        0     0.0
 203    5:50   56.5    25    8.5   194    10.9   999.00    702.0      0.0    -1423       0   999.0        0     0.0
 203    5:55   56.5    26    9.0   194    13.0   999.00    702.0      0.0    -1424       0   999.0        0     0.0
 203    6:00   56.6    26   10.3   195    12.4   999.00    702.0      0.0    -1424       0   999.0        0     0.0
 203    6:05   56.7    26    9.3   194    11.8   999.00    702.0      0.0    -1424       0   999.0        0     0.0
 203    6:10   56.8    26    7.5   195    10.0   999.00    702.0      0.0    -1424       0   999.0        0     0.0
 203    6:15   56.8    27    7.9   197    11.8   999.00    702.0      0.0    -1424       0   999.0        0     0.0
 203    6:20   56.9    26    7.5   195    11.1   999.00    702.0      0.0    -1424       0   999.0        0     0.0
 203    6:25   57.1    27    7.5   192    11.3   999.00    702.0      0.0    -1424       0   999.0        0     0.0
 203    6:30   57.1    27    8.5   173    12.0   999.00    702.0      0.0    -1424       0   999.0        0     0.0
 203    6:35   57.0    28    7.8   167     9.4   999.00    702.0      0.0    -1424       0   999.0        0     0.0
 203    6:40   57.0    29    7.6   168     9.8   999.00    702.0      0.0    -1424       0   999.0        0     0.0
 203    6:45   57.1    27    8.6   158    11.5   999.00    702.0      0.0    -1424       0   999.0        0     0.0
 203    6:50   57.3    27    8.4   154    10.2   999.00    702.0      0.0    -1424       0   999.0        0     0.0
 203    6:55   57.3    27    8.8   153    10.6   999.00    702.0      0.0    -1424       0   999.0        0     0.0
 203    7:00   57.4    28    8.0   152    10.0   999.00    702.0      0.0    -1424       0   999.0        0     0.0
 203    7:05   57.6    27    8.2   146     9.6   999.00    702.0      0.0    -1424       0   999.0        0     0.0
 203    7:10   58.0    27    7.9   146     9.8   999.00    702.0      0.0    -1424       0   999.0        0     0.0
 203    7:15   58.1    27    7.9   147    11.1   999.00    702.0      0.0    -1424       0   999.0        0     0.0
 203    7:20   58.3    27    7.5   147     8.9   999.00    702.0      0.0    -1424       0   999.0        0     0.0
 203    7:25   58.4    28    7.7   145     9.4   999.00    702.0      0.0    -1424       0   999.0        0     0.0
 203    7:30   58.7    27    6.7   148     9.2   999.00    702.0      0.0    -1424       0   999.0        0     0.0
 203    7:35   58.9    26    7.1   143     8.9   999.00    702.0      0.0    -1424       0   999.0        0     0.0
 203    7:40   59.1    26    7.7   155     9.8   999.00    702.0      0.0    -1424       0   999.0        0     0.0
 203    7:45   59.3    26    6.2   157     8.9   999.00    702.0      0.0    -1424       0   999.0        0     0.0
 203    7:50   59.4    26    6.7   151     8.7   999.00    702.0      0.0    -1424       0   999.0        0     0.0
 203    7:55   59.8    25    6.5   148    10.0   999.00    702.0      0.0    -1424       0   999.0        0     0.0
 203    8:00   60.0    26    6.2   150     9.2   999.00    702.0      0.0    -1425       0   999.0        0     0.0
 203    8:05   60.1    25    4.9   165     7.9   999.00    702.0      0.0    -1425       0   999.0        0     0.0
 203    8:10   60.6    27    4.1   149     6.1   999.00    703.0      0.0    -1425       0   999.0        0     0.0
 203    8:15   60.3    26    5.4   192     9.2   999.00    703.0      0.0    -1425       0   999.0        0     0.0
 203    8:20   60.0    25    5.1   185     8.9   999.00    703.0      0.0    -1425       0   999.0        0     0.0
 203    8:25   60.9    26    5.9   134     8.1   999.00    703.0      0.0    -1425       0   999.0        0     0.0
 203    8:30   61.7    25    6.8   152     9.1   999.00    703.0      0.0    -1425       0   999.0        0     0.0
 203    8:35   61.4    25    6.1   141     9.8   999.00    703.0      0.0    -1425       0   999.0        0     0.0
 203    8:40   62.3    25    5.9   143     8.3   999.00    703.0      0.0    -1425       0   999.0        0     0.0
 203    8:45   61.9    25    6.5   167    10.4   999.00    703.0      0.0    -1425       0   999.0        0     0.0
 203    8:50   61.1    24    7.5   181    10.2   999.00    703.0      0.0    -1425       0   999.0        0     0.0
 203    8:55   61.3    26    6.4   188     8.9   999.00    703.0      0.0    -1425       0   999.0        0     0.0
 203    9:00   62.1    25    5.8   171    10.0   999.00    703.0      0.0    -1425       0   999.0        0     0.0
 203    9:05   61.2    25    6.0   181    10.0   999.00    703.0      0.0    -1425       0   999.0        0     0.0
 203    9:10   60.9    25    6.0   189     9.2   999.00    703.0      0.0    -1425       0   999.0        0     0.0
 203    9:15   61.0    25    6.8   194    10.2   999.00    703.0      0.0    -1425       0   999.0        0     0.0
 203    9:20   61.2    25    6.4   203     9.4   999.00    703.0      0.0    -1425       0   999.0        0     0.0
 203    9:25   61.2    26    6.5   203     8.7   999.00    703.0      0.0    -1424       0   999.0        0     0.0
 203    9:30   61.3    25    6.0   211     8.9   999.00    703.0      0.0    -1424       0   999.0        0     0.0
 203    9:35   60.8    25    5.5   216     7.8   999.00    703.0      0.0    -1424       0   999.0        0     0.0
 203    9:40   61.3    24    6.6   203     9.8   999.00    703.0      0.0    -1424       0   999.0        0     0.0
 203    9:45   61.1    25    5.1   193     7.8   999.00    703.0      0.0    -1424       0   999.0        0     0.0
 203    9:50   61.6    24    6.6   202     8.7   999.00    703.0      0.0    -1424       0   999.0        0     0.0
 203    9:55   61.1    24    5.1   208     7.6   999.00    703.0      0.0    -1424       0   999.0        0     0.0
 203   10:00   61.4    26    6.6   212     8.3   999.00    703.0      0.0    -1424       0   999.0        0     0.0
 203   10:05   62.1    25    6.8   212     8.7   999.00    703.0      0.0    -1424       0   999.0        0     0.0
 203   10:10   62.1    24    4.9   208     7.4   999.00    703.0      0.0    -1423       0   999.0        0     0.0
 203   10:15   62.1    25    5.1   211     7.2   999.00    703.0      0.0    -1423       0   999.0        0     0.0
 203   10:20   62.2    25    5.6   213     7.2   999.00    703.0      0.0    -1422       0   999.0        0     0.0
 203   10:25   62.2    24    6.3   239     8.9   999.00    703.0      0.0    -1422       0   999.0        0     0.0
 203   10:30   62.7    25    6.2   225     7.8   999.00    703.0      0.0    -1422       0   999.0        0     0.0
 203   10:35   62.8    25    6.2   218    10.4   999.00    703.0      0.0    -1422       0   999.0        0     0.0
 203   10:40   64.0    26    3.5   210     4.6   999.00    703.0      0.0    -1421       0   999.0        0     0.0
 203   10:45   64.4    26    3.8   218     6.3   999.00    703.0      0.0    -1421       0   999.0        0     0.0
 203   10:50   64.1    23    4.2   198     7.6   999.00    703.0      0.0    -1421       0   999.0        0     0.0
 203   10:55   64.6    24    4.6   188     9.1   999.00    703.0      0.0    -1421       0   999.0        0     0.0
 203   11:00   63.7    24    5.1   238     8.7   999.00    703.0      0.0    -1421       0   999.0        0     0.0
 203   11:05   64.3    25    5.9   231    10.2   999.00    703.0      0.0    -1421       0   999.0        0     0.0
 203   11:10   63.8    26    6.9   236    10.0   999.00    703.0      0.0    -1420       0   999.0        0     0.0
 203   11:15   64.1    28    4.8   232     7.2   999.00    703.0      0.0    -1420       0   999.0        0     0.0
 203   11:20   64.5    29    6.1   246     7.9   999.00    703.0      0.0    -1420       0   999.0        0     0.0
 203   11:25   64.1    29    5.3   247     7.8   999.00    703.0      0.0    -1420       0   999.0        0     0.0
 203   11:30   65.1    28    6.0   244     9.4   999.00    703.0      0.0    -1419       0   999.0        0     0.0
 203   11:35   64.5    25    6.0   226    10.2   999.00    703.0      0.0    -1419       0   999.0        0     0.0
 203   11:40   64.2    26    4.8   204     8.3   999.00    703.0      0.0    -1419       0   999.0        0     0.0
 203   11:45   65.6    28    5.2   204     7.6   999.00    703.0      0.0    -1419       0   999.0        0     0.0
 203   11:50   65.8    27    3.9   203     7.4   999.00    703.0      0.0    -1419       0   999.0        0     0.0
 203   11:55   66.1    27    6.8   220    11.5   999.00    703.0      0.0    -1418       0   999.0        0     0.0
 203   12:00   64.9    26    4.3   201     8.9   999.00    703.0      0.0    -1418       0   999.0        0     0.0
 203   12:05   65.5    26    5.0   208    10.9   999.00    703.0      0.0    -1418       0   999.0        0     0.0
 203   12:10   67.0    26    5.8   188     9.4   999.00    703.0      0.0    -1418       0   999.0        0     0.0
 203   12:15   66.1    26    6.6   208    10.7   999.00    703.0      0.0    -1418       0   999.0        0     0.0
 203   12:20   65.7    27    5.1   220    10.7   999.00    703.0      0.0    -1417       0   999.0        0     0.0
 203   12:25   65.9    26    7.9   224    13.0   999.00    703.0      0.0    -1417       0   999.0        0     0.0
 203   12:30   66.1    27    7.2   204    11.3   999.00    703.0      0.0    -1417       0   999.0        0     0.0
 203   12:35   66.1    28    7.1   210    12.0   999.00    703.0      0.0    -1417       0   999.0        0     0.0
 203   12:40   66.4    27    9.3   244    12.4   999.00    703.0      0.0    -1416       0   999.0        0     0.0
 203   12:45   66.7    29    5.5   221     8.9   999.00    703.0      0.0    -1415       0   999.0        0     0.0
 203   12:50   67.5    26    6.7   256    11.7   999.00    703.0      0.0    -1415       0   999.0        0     0.0
 203   12:55   67.1    25    7.1   226    12.4   999.00    703.0      0.0    -1414       0   999.0        0     0.0
 203   13:00   66.9    26    6.3   201    11.3   999.00    703.0      0.0    -1414       0   999.0        0     0.0
 203   13:05   67.3    28    6.2   236    10.2   999.00    703.0      0.0    -1414       0   999.0        0     0.0
 203   13:10   67.3    25   10.3   267    15.6   999.00    703.0      0.0    -1413       0   999.0        0     0.0
 203   13:15   66.6    25    7.0   289    12.2   999.00    703.0      0.0    -1413       0   999.0        0     0.0
 203   13:20   67.1    26    8.5   295    11.7   999.00    703.0      0.0    -1413       0   999.0        0     0.0
 203   13:25   67.4    26    9.5   286    15.0   999.00    703.0      0.0    -1413       0   999.0        0     0.0
 203   13:30   67.3    24   11.6   242    14.6   999.00    703.0      0.0    -1413       0   999.0        0     0.0
 203   13:35   67.5    25    8.6   271    13.5   999.00    703.0      0.0    -1413       0   999.0        0     0.0
 203   13:40   68.4    24    7.2   241     9.8   999.00    703.0      0.0    -1412       0   999.0        0     0.0
 203   13:45   68.6    26    7.8   253    11.7   999.00    703.0      0.0    -1412       0   999.0        0     0.0
 203   13:50   68.5    24    9.8   260    12.6   999.00    703.0      0.0    -1412       0   999.0        0     0.0
 203   13:55   67.6    24    7.8   252    10.7   999.00    703.0      0.0    -1411       0   999.0        0     0.0
 203   14:00   68.1    24    8.9   294    13.7   999.00    703.0      0.0    -1411       0   999.0        0     0.0
 203   14:05   67.7    24    6.5   325    10.2   999.00    703.0      0.0    -1411       0   999.0        0     0.0
 203   14:10   68.5    24    9.0   310    11.1   999.00    703.0      0.0    -1411       0   999.0        0     0.0
 203   14:15   68.8    24   10.3   288    15.8   999.00    703.0      0.0    -1410       0   999.0        0     0.0
 203   14:20   68.8    24   11.3   305    16.3   999.00    703.0      0.0    -1409       0   999.0        0     0.0
 203   14:25   68.4    22    9.3   296    11.5   999.00    703.0      0.0    -1408       0   999.0        0     0.0
 203   14:30   68.8    21    9.9   309    13.9   999.00    703.0      0.0    -1408       0   999.0        0     0.0
 203   14:35   68.4    21   11.8   305    16.5   999.00    703.0      0.0    -1408       0   999.0        0     0.0
 203   14:40   68.8    22    9.8   310    13.2   999.00    703.0      0.0    -1407       0   999.0        0     0.0
 203   14:45   68.1    22   10.4   316    14.1   999.00    703.0      0.0    -1407       0   999.0        0     0.0
 203   14:50   68.5    22   10.4   310    17.1   999.00    703.0      0.0    -1407       0   999.0        0     0.0
 203   14:55   68.7    22   12.4   302    16.3   999.00    703.0      0.0    -1407       0   999.0        0     0.0
 203   15:00   68.6    22   11.2   294    16.5   999.00    703.0      0.0    -1407       0   999.0        0     0.0
 203   15:05   69.5    22   11.2   298    15.6   999.00    703.0      0.0    -1407       0   999.0        0     0.0
 203   15:10   68.8    21   11.1   306    15.8   999.00    703.0      0.0    -1406       0   999.0        0     0.0
 203   15:15   68.8    22   11.1   300    14.1   999.00    703.0      0.0    -1406       0   999.0        0     0.0
 203   15:20   69.0    23    7.7   310    11.1   999.00    703.0      0.0    -1406       0   999.0        0     0.0
 203   15:25   69.5    22   10.4   291    15.8   999.00    703.0      0.0    -1406       0   999.0        0     0.0
 203   15:30   69.4    22    9.7   296    13.5   999.00    703.0      0.0    -1405       0   999.0        0     0.0
 203   15:35   69.1    22   11.7   300    16.5   999.00    703.0      0.0    -1405       0   999.0        0     0.0
 203   15:40   68.6    22   12.0   297    15.9   999.00    703.0      0.0    -1405       0   999.0        0     0.0
 203   15:45   68.6    22   12.8   296    16.1   999.00    702.0      0.0    -1405       0   999.0        0     0.0
 203   15:50   68.5    22   11.8   310    16.3   999.00    702.0      0.0    -1405       0   999.0        0     0.0
 203   15:55   68.1    21    6.5   286    11.1   999.00    703.0      0.0    -1405       0   999.0        0     0.0
 203   16:00   69.1    22    6.6   304     9.2   999.00    703.0      0.0    -1405       0   999.0        0     0.0
 203   16:05   69.4    22    9.6   269    16.3   999.00    703.0      0.0    -1405       0   999.0        0     0.0
 203   16:10   69.3    22    6.8   284     9.1   999.00    703.0      0.0    -1405       0   999.0        0     0.0
 203   16:15   69.7    23    7.1   278    11.8   999.00    703.0      0.0    -1404       0   999.0        0     0.0
 203   16:20   69.7    20    7.4   264    11.8   999.00    703.0      0.0    -1404       0   999.0        0     0.0
 203   16:25   69.4    21    6.7   271    10.2   999.00    703.0      0.0    -1404       0   999.0        0     0.0
 203   16:30   69.5    20    7.2   292     8.9   999.00    702.0      0.0    -1403       0   999.0        0     0.0
 203   16:35   69.0    21    6.7   290    11.3   999.00    702.0      0.0    -1402       0   999.0        0     0.0
 203   16:40   69.7    21    8.5   281    12.4   999.00    702.0      0.0    -1402       0   999.0        0     0.0
 203   16:45   69.8    22    7.8   285    11.3   999.00    702.0      0.0    -1402       0   999.0        0     0.0
 203   16:50   70.2    22   10.4   278    13.9   999.00    702.0      0.0    -1402       0   999.0        0     0.0
 203   16:55   69.5    21    9.4   310    12.6   999.00    702.0      0.0    -1401       0   999.0        0     0.0
 203   17:00   68.8    20   11.4   302    15.2   999.00    702.0      0.0    -1401       0   999.0        0     0.0
 203   17:05   69.3    21    9.6   292    11.8   999.00    702.0      0.0    -1401       0   999.0        0     0.0
 203   17:10   69.2    20   10.4   297    13.0   999.00    702.0      0.0    -1401       0   999.0        0     0.0
 203   17:15   68.5    20    9.6   312    12.0   999.00    702.0      0.0    -1401       0   999.0        0     0.0
 203   17:20   68.5    19    9.3   314    12.0   999.00    702.0      0.0    -1401       0   999.0        0     0.0
 203   17:25   68.9    19    7.2   309    10.7   999.00    702.0      0.0    -1403       0   999.0        0     0.0
 203   17:30   69.6    18    7.9   317    10.9   999.00    702.0      0.0    -1403       0   999.0        0     0.0
 203   17:35   69.2    17    8.1   303    10.9   999.00    702.0      0.0    -1403       0   999.0        0     0.0
 203   17:40   68.8    17    7.0   286    10.0   999.00    702.0      0.0    -1403       0   999.0        0     0.0
 203   17:45   69.0    18    6.9   290    10.2   999.00    702.0      0.0    -1403       0   999.0        0     0.0
 203   17:50   69.4    18    7.1   271    10.2   999.00    702.0      0.0    -1403       0   999.0        0     0.0
 203   17:55   69.5    18    8.0   278    10.9   999.00    702.0      0.0    -1403       0   999.0        0     0.0
 203   18:00   69.0    18    9.0   302    11.1   999.00    702.0      0.0    -1403       0   999.0        0     0.0
 203   18:05   68.8    19    7.7   293     9.6   999.00    702.0      0.0    -1403       0   999.0        0     0.0
 203   18:10   68.8    19    8.3   313    11.8   999.00    702.0      0.0    -1402       0   999.0        0     0.0
 203   18:15   69.1    19    5.1   350    10.2   999.00    702.0      0.0    -1402       0   999.0        0     0.0
 203   18:20   69.3    19    3.3   329     5.2   999.00    702.0      0.0    -1401       0   999.0        0     0.0
 203   18:25   69.5    20    2.7   354     5.3   999.00    702.0      0.0    -1400       0   999.0        0     0.0
 203   18:30   69.4    19    2.8   347     5.7   999.00    702.0      0.0    -1399       0   999.0        0     0.0
 203   18:35   68.7    19    4.7   321     6.8   999.00    702.0      0.0    -1399       0   999.0        0     0.0
 203   18:40   68.4    20    3.2   323     5.0   999.00    702.0      0.0    -1399       0   999.0        0     0.0
 203   18:45   68.7    20    3.6   324     5.0   999.00    702.0      0.0    -1399       0   999.0        0     0.0
 203   18:50   68.0    20    4.4   343     6.6   999.00    702.0      0.0    -1398       0   999.0        0     0.0
 203   18:55   68.1    20    3.1   341     5.5   999.00    702.0      0.0    -1398       0   999.0        0     0.0
 203   19:00   67.9    20    4.1   341     5.5   999.00    702.0      0.0    -1398       0   999.0        0     0.0
 203   19:05   67.2    20    4.6   320     6.5   999.00    702.0      0.0    -1398       0   999.0        0     0.0
 203   19:10   66.8    20    4.4   319     5.5   999.00    702.0      0.0    -1399       0   999.0        0     0.0
 203   19:15   66.3    21    4.0   326     5.0   999.00    702.0      0.0    -1399       0   999.0        0     0.0
 203   19:20   66.0    21    4.1   326     5.0   999.00    702.0      0.0    -1399       0   999.0        0     0.0
 203   19:25   65.4    21    4.2   332     5.0   999.00    702.0      0.0    -1400       0   999.0        0     0.0
 203   19:30   64.8    22    4.1   336     5.0   999.00    702.0      0.0    -1401       0   999.0        0     0.0
 203   19:35   64.5    22    4.1   336     4.8   999.00    702.0      0.0    -1402       0   999.0        0     0.0
 203   19:40   64.1    22    3.9   337     4.6   999.00    702.0      0.0    -1402       0   999.0        0     0.0
 203   19:45   64.0    22    4.0   337     4.4   999.00    702.0      0.0    -1402       0   999.0        0     0.0
 203   19:50   63.7    22    3.9   337     4.8   999.00    702.0      0.0    -1403       0   999.0        0     0.0
 203   19:55   63.4    22    4.0   332     5.5   999.00    702.0      0.0    -1403       0   999.0        0     0.0
 203   20:00   63.5    22    3.7   327     4.8   999.00    702.0      0.0    -1403       0   999.0        0     0.0
 203   20:05   63.7    22    3.4   329     4.4   999.00    702.0      0.0    -1403       0   999.0        0     0.0
 203   20:10   63.5    22    2.1   331     3.1   999.00    702.0      0.0    -1403       0   999.0        0     0.0
 203   20:15   63.4    22    1.9   331     2.9   999.00    702.0      0.0    -1403       0   999.0        0     0.0
 203   20:20   63.1    22    2.0   331     2.9   999.00    702.0      0.0    -1404       0   999.0        0     0.0
 203   20:25   63.0    22    1.8   331     2.0   999.00    702.0      0.0    -1404       0   999.0        0     0.0
 203   20:30   62.9    22    2.1   331     3.8   999.00    702.0      0.0    -1404       0   999.0        0     0.0
 203   20:35   63.2    22    2.7   332     3.5   999.00    702.0      0.0    -1404       0   999.0        0     0.0
 203   20:40   63.1    22    2.1   332     3.1   999.00    702.0      0.0    -1404       0   999.0        0     0.0
 203   20:45   62.9    23    2.1   332     2.9   999.00    702.0      0.0    -1404       0   999.0        0     0.0
 203   20:50   62.7    23    1.9   332     2.7   999.00    702.0      0.0    -1404       0   999.0        0     0.0
 203   20:55   62.9    22    1.8   332     1.8   999.00    702.0      0.0    -1405       0   999.0        0     0.0
 203   21:00   62.9    23    1.8   332     1.8   999.00    702.0      0.0    -1405       0   999.0        0     0.0
 203   21:05   62.5    23    1.9   333     2.5   999.00    702.0      0.0    -1405       0   999.0        0     0.0
 203   21:10   63.0    23    2.7   338     3.7   999.00    702.0      0.0    -1405       0   999.0        0     0.0
 203   21:15   64.2    22    3.7    38     5.5   999.00    702.0      0.0    -1405       0   999.0        0     0.0
 203   21:20   64.2    22    4.8    52     7.2   999.00    702.0      0.0    -1406       0   999.0        0     0.0
 203   21:25   63.9    22    6.0    50     8.1   999.00    702.0      0.0    -1407       0   999.0        0     0.0
 203   21:30   64.0    22    6.0    53     8.1   999.00    703.0      0.0    -1408       0   999.0        0     0.0
 203   21:35   64.0    21    6.1    56     7.9   999.00    703.0      0.0    -1409       0   999.0        0     0.0
 203   21:40   63.8    22    6.9    62     9.4   999.00    703.0      0.0    -1409       0   999.0        0     0.0
 203   21:45   64.0    21    5.4    84     7.0   999.00    703.0      0.0    -1410       0   999.0        0     0.0
 203   21:50   63.5    22    6.7    92     9.2   999.00    703.0      0.0    -1410       0   999.0        0     0.0
 203   21:55   62.9    22    6.4   101    10.4   999.00    702.0      0.0    -1411       0   999.0        0     0.0
 203   22:00   62.2    25    6.1   104    12.2   999.00    702.0      0.0    -1411       0   999.0        0     0.0
 203   22:05   61.2    31    9.7   110    17.2   999.00    702.0      0.0    -1411       0   999.0        0     0.0
 203   22:10   60.7    32    7.4   121    15.8   999.00    702.0      0.0    -1412       0   999.0        0     0.0
 203   22:15   60.3    36    6.9   104    11.8   999.00    702.0      0.0    -1413       0   999.0        0     0.0
 203   22:20   59.9    39    6.3   112    12.6   999.00    702.0      0.0    -1414       0   999.0        0     0.0
 203   22:25   59.9    41    7.6    95    13.5   999.00    702.0      0.0    -1414       0   999.0        0     0.0
 203   22:30   59.7    42    6.9   119    12.6   999.00    702.0      0.0    -1415       0   999.0        0     0.0
 203   22:35   59.7    43    8.1   110    13.3   999.00    702.0      0.0    -1415       0   999.0        0     0.0
 203   22:40   59.3    43    7.2   109    14.6   999.00    702.0      0.0    -1415       0   999.0        0     0.0
 203   22:45   59.2    43    7.3    94    11.1   999.00    702.0      0.0    -1416       0   999.0        0     0.0
 203   22:50   58.9    42    8.8   107    14.8   999.00    702.0      0.0    -1416       0   999.0        0     0.0
 203   22:55   58.7    42    7.8   107    17.1   999.00    702.0      0.0    -1417       0   999.0        0     0.0
 203   23:00   58.4    43    7.8   106    14.3   999.00    702.0      0.0    -1417       0   999.0        0     0.0
 203   23:05   58.2    43   10.7   111    20.2   999.00    702.0      0.0    -1417       0   999.0        0     0.0
 203   23:10   58.2    43    7.5   104    13.2   999.00    702.0      0.0    -1417       0   999.0        0     0.0
 203   23:15   58.1    43    9.2    95    15.4   999.00    702.0      0.0    -1418       0   999.0        0     0.0
 203   23:20   58.1    43    9.8   117    17.6   999.00    702.0      0.0    -1418       0   999.0        0     0.0
 203   23:25   57.9    44    7.8   120    15.4   999.00    702.0      0.0    -1419       0   999.0        0     0.0
 203   23:30   57.9    44    9.3   108    18.0   999.00    702.0      0.0    -1419       0   999.0        0     0.0
 203   23:35   57.6    45    6.4   100    10.6   999.00    702.0      0.0    -1421       0   999.0        0     0.0
 203   23:40   57.5    45    7.1   110    14.1   999.00    702.0      0.0    -1422       0   999.0        0     0.0
 203   23:45   57.6    45    7.4   100    12.4   999.00    702.0      0.0    -1422       0   999.0        0     0.0
 203   23:50   57.7    44    9.0   102    15.2   999.00    702.0      0.0    -1423       0   999.0        0     0.0
 203   23:55   57.4    44    7.8   110    16.1   999.00    702.0      0.0    -1423       0   999.0        0     0.0
 204    0:00   57.4    44    5.9   105    11.7   999.00    702.0      0.0    -1423       0   999.0        0     0.0
 204    0:05   57.2    44    7.1   106    13.3   999.00    702.0      0.0    -1424       0   999.0        0     0.0
 204    0:10   56.8    44    8.0   100    13.7   999.00    702.0      0.0    -1424       0   999.0        0     0.0
 204    0:15   56.7    44    7.3   113    12.8   999.00    702.0      0.0    -1424       0   999.0        0     0.0
 204    0:20   56.8    44    6.8   104    14.3   999.00    702.0      0.0    -1425       0   999.0        0     0.0
 204    0:25   56.8    44    7.4   107    14.6   999.00    702.0      0.0    -1425       0   999.0        0     0.0
 204    0:30   56.8    44    7.8   119    16.1   999.00    702.0      0.0    -1425       0   999.0        0     0.0
 204    0:35   56.8    44    7.5   110    11.5   999.00    702.0      0.0    -1426       0   999.0        0     0.0
 204    0:40   56.7    44    6.6   111    12.6   999.00    702.0      0.0    -1426       0   999.0        0     0.0

Return to DRI Storm Peak Lab. graphs page.


Western Regional Climate Center,wrcc@dri.edu